Flight Track Log - Related Links

Times and Time Zones

All times are in EST time to prevent confusion due to time zone crossing. See the EJA226 flight status page for this flight to view local times or setup timezone preferences in your user account.

Time Position Orientation Groundspeed Altitude Reporting Facility
EST Latitude Longitude Course Direction KTS MPH feet Rate Location/Type
Mon 09:33:46 AM 40.0019 -82.9125 276° West 149 171 1,500  Level Indianapolis Center
Mon 09:34:28 AM 40.0058 -82.9597 276° West 194 223 3,400 2,000 Climbing Indianapolis Center
Mon 09:34:34 AM 40.0058 -82.9519 90° East 181 208 3,100 3,706 Descending Indianapolis Center
Mon 09:35:36 AM 40.0075 -83.0531 271° West 227 261 7,600 4,195 Climbing Indianapolis Center
Mon 09:36:37 AM 40.0097 -83.1361 272° West 230 265 11,700 3,463 Climbing Indianapolis Center
Mon 09:37:39 AM 40.0147 -83.2208 274° West 235 270 14,700 2,032 Climbing Indianapolis Center
Mon 09:38:41 AM 40.0153 -83.3156 270° West 261 300 15,900 629 Climbing Indianapolis Center
Mon 09:39:43 AM 40.0150 -83.4186 270° West 287 330 16,000 98 Climbing Indianapolis Center
Mon 09:40:44 AM 40.0147 -83.5392 270° West 284 327 16,100 -634 Climbing Indianapolis Center
Mon 09:41:46 AM 40.0578 -83.6233 304° West 314 361 14,700 -1,761 Descending Indianapolis Center
Mon 09:42:33 AM 40.1467 -83.5822 19° North 468 539 12,900 -2,032 Descending Indianapolis Center
Mon 09:42:48 AM 40.1600 -83.5553 57° Northeast 440 506 12,600 -2,066 Descending Indianapolis Center
Mon 09:43:34 AM 40.1903 -83.4197 74° East 486 559 10,800 -1,514 Descending Indianapolis Center
Mon 09:44:35 AM 40.1611 -83.2450 102° East 463 533 9,900 -446 Descending Indianapolis Center
Mon 09:45:35 AM 40.1303 -83.0864 104° East 450 518 9,900  Level Indianapolis Center
Mon 09:46:36 AM 40.0989 -82.9308 105° East 438 504 9,900 -1,082 Level Indianapolis Center
Mon 09:47:37 AM 40.0753 -82.8014 103° East 323 372 7,700 -2,951 Descending Indianapolis Center
Mon 09:48:38 AM 40.0511 -82.6992 107° East 276 318 3,900 -2,331 Descending Indianapolis Center
Mon 09:49:38 AM 39.9928 -82.6956 177° South 194 223 3,000 -545 Descending Indianapolis Center
Mon 09:50:39 AM 39.9936 -82.7531 271° West 147 169 2,800 -469 Descending Indianapolis Center
Mon 09:51:46 AM 39.9956 -82.8022 273° West 118 136 2,000 -709 Descending Indianapolis Center
Mon 09:52:46 AM 39.9997 -82.8467 277° West 111 128 1,300 -700 Descending Indianapolis Center

Login

Don't have an account? Register now (free) for customized features, flight alerts, and more!